Terminal Aerodrome Forecast
Issued by NWS

Home | Current Version | Previous Version | Text Only | Print | Product List | Glossary Off
Versions: 1 2 3 4 5 6 7 8 9 10 11 12 13 14 15 16 17 18 19 20 21 22 23

550
FTUS43 KBIS 141637 AAE
TAFJMS
TAF AMD
KJMS 141637Z 1417/1512 31015KT 3SM -SN BR BKN015 OVC050
      TEMPO 1417/1418 30017G22KT 5SM -SN BR FEW018 BKN035
     FM141800 32020G27KT P6SM BKN025
     FM150100 33017G25KT P6SM SCT020
     FM150600 34014KT P6SM SCT035=

USA.gov is the U.S. government's official web portal to all federal, state and local government web resources and services.